Time;durP1;ratioP1;P1;durP2;ratioP2;P2;SDS_P1;SDS_P2;PMS_P1;PMS_P2;Temp;Humidity;BMP_temperature;BMP_pressure;BME280_temperature;BME280_humidity;BME280_pressure;Samples;Min_cycle;Max_cycle;Signal;HPM_P1;HPM_P2
2024/02/06 00:00:25;;;;;;;;;;;;;;;1.43;100.00;98255.23;109208;1253;59651;-63
2024/02/06 00:02:52;;;;;;;;;;;;;;;1.39;100.00;98258.59;109258;1253;59895;-63
2024/02/06 00:05:20;;;;;;;;;;;;;;;1.32;100.00;98262.11;109319;1253;73437;-64
2024/02/06 00:07:47;;;;;;;;;;;;;;;1.25;100.00;98268.05;109286;1251;66922;-63
2024/02/06 00:10:15;;;;;;;;;;;;;;;1.19;100.00;98275.84;109298;1251;72666;-64
2024/02/06 00:12:43;;;;;;;;;;;;;;;1.19;100.00;98282.87;109152;1254;60876;-64
2024/02/06 00:15:10;;;;;;;;;;;;;;;1.19;100.00;98290.09;109215;1253;59907;-64
2024/02/06 00:17:38;;;;;;;;;;;;;;;1.17;100.00;98289.07;109288;1253;74711;-64
2024/02/06 00:20:06;;;;;;;;;;;;;;;1.15;100.00;98298.95;109226;1253;65789;-67
2024/02/06 00:22:34;;;;;;;;;;;;;;;1.14;100.00;98301.89;109190;1253;73253;-63
2024/02/06 00:25:01;;;;;;;;;;;;;;;1.13;100.00;98305.80;109223;1253;59795;-63
2024/02/06 00:27:29;;;;;;;;;;;;;;;1.13;100.00;98310.78;109237;1253;59796;-63
2024/02/06 00:29:57;;;;;;;;;;;;;;;1.12;100.00;98317.21;109306;1253;74796;-64
2024/02/06 00:32:24;;;;;;;;;;;;;;;1.11;100.00;98320.98;109219;1253;66898;-63
2024/02/06 00:34:56;;;;;;;;;;;;;;;1.09;100.00;98319.27;109271;1253;73150;-62
2024/02/06 00:37:24;;;;;;;;;;;;;;;1.08;100.00;98332.60;109269;1254;58926;-62
2024/02/06 00:39:51;;;;;;;;;;;;;;;1.07;100.00;98340.84;109273;1253;59313;-63
2024/02/06 00:42:19;;;;;;;;;;;;;;;1.08;100.00;98347.05;109240;1254;74715;-66
2024/02/06 00:44:46;;;;;;;;;;;;;;;1.09;100.00;98349.91;109323;1253;67007;-63
2024/02/06 00:47:16;;;;;;;;;;;;;;;1.08;100.00;98362.84;109241;1253;72827;-63
2024/02/06 00:49:43;;;;;;;;;;;;;;;1.09;100.00;98370.42;109280;1255;59816;-63
2024/02/06 00:52:11;;;;;;;;;;;;;;;1.09;100.00;98373.31;109277;1253;58923;-63
2024/02/06 00:54:38;;;;;;;;;;;;;;;1.06;100.00;98377.02;109290;1253;73372;-63
2024/02/06 00:57:06;;;;;;;;;;;;;;;1.02;100.00;98381.00;109326;1253;65979;-62
2024/02/06 00:59:33;;;;;;;;;;;;;;;0.97;100.00;98385.91;109293;1253;70707;-62
2024/02/06 01:02:01;;;;;;;;;;;;;;;0.98;100.00;98396.71;109270;1254;59650;-63
2024/02/06 01:04:29;;;;;;;;;;;;;;;1.01;100.00;98401.74;109333;1252;58990;-63
2024/02/06 01:06:57;;;;;;;;;;;;;;;1.01;100.00;98410.45;109260;1252;74769;-62
2024/02/06 01:09:24;;;;;;;;;;;;;;;0.95;100.00;98418.77;109343;1253;66994;-63
2024/02/06 01:11:52;;;;;;;;;;;;;;;0.85;100.00;98426.27;109318;1253;72491;-63
2024/02/06 01:14:19;;;;;;;;;;;;;;;0.76;100.00;98434.92;109245;1253;59693;-63
2024/02/06 01:16:47;;;;;;;;;;;;;;;0.68;100.00;98440.17;109232;1253;59648;-63
2024/02/06 01:19:14;;;;;;;;;;;;;;;0.62;100.00;98444.73;109309;1253;75117;-63
2024/02/06 01:21:42;;;;;;;;;;;;;;;0.57;100.00;98452.70;109328;1253;67399;-63
2024/02/06 01:24:09;;;;;;;;;;;;;;;0.51;100.00;98458.13;109434;1253;71699;-63
2024/02/06 01:26:37;;;;;;;;;;;;;;;0.46;100.00;98461.66;109291;1253;59395;-63
2024/02/06 01:29:04;;;;;;;;;;;;;;;0.43;100.00;98472.59;109248;1252;59740;-63
2024/02/06 01:31:32;;;;;;;;;;;;;;;0.42;100.00;98479.54;109336;1253;74720;-63
2024/02/06 01:33:59;;;;;;;;;;;;;;;0.40;100.00;98482.30;109306;1253;66984;-62
2024/02/06 01:36:27;;;;;;;;;;;;;;;0.36;100.00;98489.40;109315;1256;72777;-62
2024/02/06 01:38:54;;;;;;;;;;;;;;;0.31;100.00;98502.95;109286;1253;60165;-66
2024/02/06 01:41:22;;;;;;;;;;;;;;;0.23;100.00;98504.73;109398;1257;59060;-62
2024/02/06 01:43:50;;;;;;;;;;;;;;;0.15;100.00;98509.17;109251;1253;74745;-63
2024/02/06 01:46:17;;;;;;;;;;;;;;;0.08;100.00;98520.78;109208;1253;67548;-63
2024/02/06 01:48:45;;;;;;;;;;;;;;;0.00;100.00;98525.87;109216;1253;72795;-62
2024/02/06 01:51:13;;;;;;;;;;;;;;;-0.04;100.00;98534.38;109166;1254;58951;-66
2024/02/06 01:53:41;;;;;;;;;;;;;;;-0.06;100.00;98540.23;109209;1253;59111;-63
2024/02/06 01:56:08;;;;;;;;;;;;;;;-0.01;100.00;98549.59;109281;1253;74708;-63
2024/02/06 01:58:36;;;;;;;;;;;;;;;0.04;100.00;98558.12;109255;1253;66928;-62
2024/02/06 02:01:04;;;;;;;;;;;;;;;0.10;100.00;98557.88;109246;1253;71444;-62
2024/02/06 02:03:32;;;;;;;;;;;;;;;0.14;100.00;98563.70;109149;1253;60951;-62
2024/02/06 02:05:59;;;;;;;;;;;;;;;0.19;100.00;98569.00;109223;1253;60050;-63
2024/02/06 02:08:31;;;;;;;;;;;;;;;0.18;100.00;98576.52;109236;1253;73743;-62
2024/02/06 02:10:59;;;;;;;;;;;;;;;0.10;100.00;98584.10;109283;1253;65672;-62
2024/02/06 02:13:26;;;;;;;;;;;;;;;0.05;100.00;98590.14;109158;1255;72763;-68
2024/02/06 02:15:54;;;;;;;;;;;;;;;-0.01;100.00;98591.95;109194;1253;60885;-62
2024/02/06 02:18:21;;;;;;;;;;;;;;;-0.06;100.00;98601.53;109199;1253;58994;-62
2024/02/06 02:20:49;;;;;;;;;;;;;;;-0.08;100.00;98611.61;109218;1253;74599;-63
2024/02/06 02:23:16;;;;;;;;;;;;;;;-0.08;100.00;98613.83;109277;1253;66923;-64
2024/02/06 02:25:55;;;;;;;;;;;;;;;-0.03;100.00;98613.69;109278;1253;72711;-62
2024/02/06 02:28:22;;;;;;;;;;;;;;;-0.01;100.00;98617.06;109234;1255;59938;-64
2024/02/06 02:30:50;;;;;;;;;;;;;;;-0.04;100.00;98625.50;109262;1253;60044;-64
2024/02/06 02:33:18;;;;;;;;;;;;;;;-0.10;100.00;98632.68;109237;1253;74755;-64
2024/02/06 02:35:46;;;;;;;;;;;;;;;-0.18;100.00;98634.30;109218;1253;66886;-63
2024/02/06 02:38:14;;;;;;;;;;;;;;;-0.22;100.00;98639.35;109269;1253;72703;-63
2024/02/06 02:40:41;;;;;;;;;;;;;;;-0.32;100.00;98640.78;109243;1254;59680;-63
2024/02/06 02:43:09;;;;;;;;;;;;;;;-0.40;100.00;98645.05;109277;1253;60056;-63
2024/02/06 02:45:36;;;;;;;;;;;;;;;-0.45;100.00;98652.71;109202;1253;74650;-68
2024/02/06 02:48:04;;;;;;;;;;;;;;;-0.48;100.00;98656.23;109295;1252;66971;-62
2024/02/06 02:50:32;;;;;;;;;;;;;;;-0.47;100.00;98660.77;109246;1253;72797;-63
2024/02/06 02:52:59;;;;;;;;;;;;;;;-0.45;100.00;98658.02;109250;1253;61058;-63
2024/02/06 02:55:27;;;;;;;;;;;;;;;-0.42;100.00;98660.06;109276;1253;59981;-65
2024/02/06 02:57:54;;;;;;;;;;;;;;;-0.36;100.00;98663.23;109201;1252;73425;-67
2024/02/06 03:00:22;;;;;;;;;;;;;;;-0.31;100.00;98662.27;109322;1253;66849;-63
2024/02/06 03:02:49;;;;;;;;;;;;;;;-0.28;100.00;98665.02;109276;1253;72907;-64
2024/02/06 03:05:17;;;;;;;;;;;;;;;-0.29;100.00;98667.11;109261;1253;59712;-63
2024/02/06 03:07:44;;;;;;;;;;;;;;;-0.28;100.00;98675.72;109258;1253;59303;-64
2024/02/06 03:10:12;;;;;;;;;;;;;;;-0.27;100.00;98678.34;109246;1253;74683;-64
2024/02/06 03:12:40;;;;;;;;;;;;;;;-0.23;100.00;98680.60;109312;1253;65564;-63
2024/02/06 03:15:07;;;;;;;;;;;;;;;-0.19;100.00;98690.55;109257;1253;71454;-62
2024/02/06 03:17:35;;;;;;;;;;;;;;;-0.13;100.00;98690.70;109294;1253;59500;-63
2024/02/06 03:20:04;;;;;;;;;;;;;;;-0.09;100.00;98692.00;109264;1253;59164;-67
2024/02/06 03:22:32;;;;;;;;;;;;;;;-0.07;100.00;98693.67;109242;1253;74829;-63
2024/02/06 03:25:00;;;;;;;;;;;;;;;-0.09;100.00;98699.45;109170;1253;66995;-63
2024/02/06 03:27:27;;;;;;;;;;;;;;;-0.12;100.00;98700.50;109240;1253;71706;-62
2024/02/06 03:29:57;;;;;;;;;;;;;;;-0.20;100.00;98707.22;109251;1253;58957;-63
2024/02/06 03:32:25;;;;;;;;;;;;;;;-0.23;100.00;98708.05;109268;1252;59918;-63
2024/02/06 03:34:52;;;;;;;;;;;;;;;-0.25;100.00;98713.66;109250;1253;74915;-63
2024/02/06 03:37:20;;;;;;;;;;;;;;;-0.27;100.00;98718.86;109268;1253;66963;-62
2024/02/06 03:39:48;;;;;;;;;;;;;;;-0.34;100.00;98729.61;109222;1253;71307;-63
2024/02/06 03:42:15;;;;;;;;;;;;;;;-0.38;100.00;98733.77;109233;1253;60970;-64
2024/02/06 03:44:43;;;;;;;;;;;;;;;-0.39;100.00;98729.90;109257;1253;60422;-62
2024/02/06 03:47:10;;;;;;;;;;;;;;;-0.41;100.00;98737.81;109265;1253;73438;-63
2024/02/06 03:49:38;;;;;;;;;;;;;;;-0.45;100.00;98747.27;109269;1253;65628;-63
2024/02/06 03:52:06;;;;;;;;;;;;;;;-0.46;100.00;98755.55;109246;1253;71569;-62
2024/02/06 03:54:33;;;;;;;;;;;;;;;-0.40;100.00;98756.83;109348;1253;59682;-62
2024/02/06 03:57:01;;;;;;;;;;;;;;;-0.34;100.00;98765.80;109261;1253;58990;-63
2024/02/06 03:59:28;;;;;;;;;;;;;;;-0.29;100.00;98772.98;109266;1253;74668;-64
2024/02/06 04:01:56;;;;;;;;;;;;;;;-0.25;100.00;98777.86;109241;1253;66946;-63
2024/02/06 04:04:24;;;;;;;;;;;;;;;-0.24;100.00;98782.38;109235;1253;72736;-66
2024/02/06 04:06:51;;;;;;;;;;;;;;;-0.25;100.00;98788.40;109218;1254;60980;-62
2024/02/06 04:09:19;;;;;;;;;;;;;;;-0.28;100.00;98794.33;109307;1253;59894;-62
2024/02/06 04:11:46;;;;;;;;;;;;;;;-0.34;100.00;98797.20;109296;1253;73911;-63
2024/02/06 04:14:14;;;;;;;;;;;;;;;-0.46;100.00;98796.46;109275;1253;65677;-61
2024/02/06 04:16:41;;;;;;;;;;;;;;;-0.58;100.00;98792.68;109212;1253;73029;-62
2024/02/06 04:19:09;;;;;;;;;;;;;;;-0.70;100.00;98801.87;109213;1255;60934;-61
2024/02/06 04:21:38;;;;;;;;;;;;;;;-0.81;100.00;98809.70;109235;1253;59883;-61
2024/02/06 04:24:06;;;;;;;;;;;;;;;-0.88;100.00;98812.33;109297;1253;74677;-60
2024/02/06 04:26:33;;;;;;;;;;;;;;;-0.94;100.00;98809.77;109244;1253;67038;-65
2024/02/06 04:29:01;;;;;;;;;;;;;;;-0.98;100.00;98811.48;109261;1253;72909;-60
2024/02/06 04:31:28;;;;;;;;;;;;;;;-1.00;100.00;98814.59;109245;1253;60929;-60
2024/02/06 04:33:56;;;;;;;;;;;;;;;-1.00;100.00;98814.45;109256;1253;58936;-59
2024/02/06 04:36:23;;;;;;;;;;;;;;;-1.02;100.00;98810.74;109274;1253;74757;-60
2024/02/06 04:38:51;;;;;;;;;;;;;;;-1.09;100.00;98821.92;109224;1253;67036;-60
2024/02/06 04:41:18;;;;;;;;;;;;;;;-1.16;100.00;98825.48;109266;1253;73137;-59
2024/02/06 04:43:46;;;;;;;;;;;;;;;-1.20;100.00;98825.86;109115;1253;59806;-58
2024/02/06 04:46:14;;;;;;;;;;;;;;;-1.25;100.00;98833.29;109277;1253;59288;-59
2024/02/06 04:48:41;;;;;;;;;;;;;;;-1.29;100.00;98837.08;109216;1253;74703;-65
2024/02/06 04:51:09;;;;;;;;;;;;;;;-1.32;100.00;98840.08;109270;1253;66964;-59
2024/02/06 04:53:36;;;;;;;;;;;;;;;-1.38;100.00;98846.48;109229;1253;72835;-59
2024/02/06 04:56:04;;;;;;;;;;;;;;;-1.46;100.00;98857.02;109220;1253;58941;-59
2024/02/06 04:58:31;;;;;;;;;;;;;;;-1.53;100.00;98864.73;109237;1253;58995;-58
2024/02/06 05:00:59;;;;;;;;;;;;;;;-1.60;100.00;98868.95;109246;1253;73431;-59
2024/02/06 05:03:27;;;;;;;;;;;;;;;-1.66;100.00;98867.59;109251;1253;65684;-58
2024/02/06 05:05:55;;;;;;;;;;;;;;;-1.69;100.00;98874.84;109227;1253;71504;-58
2024/02/06 05:08:22;;;;;;;;;;;;;;;-1.68;100.00;98884.84;109215;1253;60436;-59
2024/02/06 05:10:52;;;;;;;;;;;;;;;-1.64;100.00;98892.75;109259;1253;58973;-58
2024/02/06 05:13:20;;;;;;;;;;;;;;;-1.58;100.00;98898.84;109217;1253;75295;-59
2024/02/06 05:15:48;;;;;;;;;;;;;;;-1.51;100.00;98896.02;109255;1253;66980;-59
2024/02/06 05:18:15;;;;;;;;;;;;;;;-1.48;100.00;98900.66;109464;1253;71750;-59
2024/02/06 05:20:43;;;;;;;;;;;;;;;-1.49;100.00;98900.23;109247;1253;59497;-60
2024/02/06 05:23:11;;;;;;;;;;;;;;;-1.51;100.00;98900.29;109186;1253;59807;-59
2024/02/06 05:25:38;;;;;;;;;;;;;;;-1.53;100.00;98899.77;109250;1253;73008;-59
2024/02/06 05:28:06;;;;;;;;;;;;;;;-1.53;100.00;98899.77;109199;1253;66919;-58
2024/02/06 05:30:35;;;;;;;;;;;;;;;-1.46;100.00;98906.10;109194;1253;72726;-58
2024/02/06 05:33:03;;;;;;;;;;;;;;;-1.34;100.00;98903.49;109242;1253;60171;-59
2024/02/06 05:35:30;;;;;;;;;;;;;;;-1.25;100.00;98906.43;109231;1253;59267;-60
2024/02/06 05:37:58;;;;;;;;;;;;;;;-1.20;100.00;98906.79;109266;1252;74921;-58
2024/02/06 05:40:26;;;;;;;;;;;;;;;-1.13;100.00;98912.47;109233;1253;67017;-58
2024/02/06 05:42:53;;;;;;;;;;;;;;;-1.02;100.00;98919.13;109234;1253;72762;-58
2024/02/06 05:45:21;;;;;;;;;;;;;;;-0.95;100.00;98922.39;109199;1253;63130;-59
2024/02/06 05:47:50;;;;;;;;;;;;;;;-0.93;100.00;98929.25;109279;1253;58881;-58
2024/02/06 05:50:18;;;;;;;;;;;;;;;-0.65;100.00;98934.97;109192;1253;74804;-59
2024/02/06 05:52:45;;;;;;;;;;;;;;;0.15;100.00;98941.17;109164;1253;65742;-59
2024/02/06 05:55:13;;;;;;;;;;;;;;;1.08;100.00;98946.96;109235;1253;72868;-64
2024/02/06 05:57:41;;;;;;;;;;;;;;;1.94;100.00;98946.08;109223;1256;59071;-60
2024/02/06 06:00:08;;;;;;;;;;;;;;;2.68;100.00;98951.13;109254;1252;58971;-60
2024/02/06 06:02:37;;;;;;;;;;;;;;;3.27;100.00;98949.00;109245;1253;74780;-60
2024/02/06 06:05:04;;;;;;;;;;;;;;;3.79;100.00;98944.66;109199;1253;65918;-61
2024/02/06 06:07:32;;;;;;;;;;;;;;;4.25;100.00;98941.86;109136;1253;72822;-63
2024/02/06 06:10:00;;;;;;;;;;;;;;;4.72;100.00;98941.41;109202;1255;59364;-60
2024/02/06 06:12:27;;;;;;;;;;;;;;;5.13;100.00;98933.57;109164;1253;58930;-60
2024/02/06 06:14:55;;;;;;;;;;;;;;;5.52;100.00;98924.42;109134;1253;73521;-60
2024/02/06 06:17:22;;;;;;;;;;;;;;;5.87;100.00;98913.40;109134;1253;66221;-63
2024/02/06 06:19:50;;;;;;;;;;;;;;;6.22;100.00;98906.98;109145;1253;72752;-59
2024/02/06 06:22:18;;;;;;;;;;;;;;;6.43;100.00;98895.54;109097;1259;59336;-60
2024/02/06 06:24:45;;;;;;;;;;;;;;;6.61;100.00;98889.16;109167;1253;58907;-59
2024/02/06 06:27:14;;;;;;;;;;;;;;;6.73;100.00;98873.17;109206;1253;73555;-60
2024/02/06 06:29:42;;;;;;;;;;;;;;;6.69;100.00;98872.30;109138;1253;65716;-62
2024/02/06 06:32:09;;;;;;;;;;;;;;;6.21;100.00;98868.08;109205;1253;72378;-59
2024/02/06 06:34:37;;;;;;;;;;;;;;;5.50;100.00;98870.80;109130;1253;59269;-59
2024/02/06 06:37:04;;;;;;;;;;;;;;;4.84;100.00;98880.30;109147;1253;59898;-58
2024/02/06 06:39:32;;;;;;;;;;;;;;;4.33;100.00;98886.14;109165;1255;74955;-62
2024/02/06 06:42:00;;;;;;;;;;;;;;;3.86;100.00;98887.45;109147;1253;67667;-60
2024/02/06 06:44:27;;;;;;;;;;;;;;;3.54;100.00;98898.66;109120;1253;71836;-60
2024/02/06 06:46:55;;;;;;;;;;;;;;;3.22;100.00;98907.98;109132;1253;59337;-60
2024/02/06 06:49:22;;;;;;;;;;;;;;;3.02;100.00;98906.67;109148;1253;59897;-60
2024/02/06 06:51:50;;;;;;;;;;;;;;;2.82;100.00;98910.35;109126;1253;74658;-61
2024/02/06 06:54:18;;;;;;;;;;;;;;;2.61;100.00;98912.20;109141;1253;66932;-60
2024/02/06 06:56:45;;;;;;;;;;;;;;;2.46;100.00;98917.29;109101;1253;71439;-60
2024/02/06 06:59:13;;;;;;;;;;;;;;;2.33;100.00;98922.48;109143;1253;63061;-59
2024/02/06 07:01:41;;;;;;;;;;;;;;;2.20;100.00;98926.71;109172;1253;62140;-64
2024/02/06 07:04:09;;;;;;;;;;;;;;;2.10;100.00;98927.74;109124;1253;77453;-60
2024/02/06 07:06:38;;;;;;;;;;;;;;;2.02;100.00;98934.45;109161;1253;68116;-60
2024/02/06 07:09:06;;;;;;;;;;;;;;;1.93;100.00;98932.13;109133;1253;74647;-60
2024/02/06 07:11:34;;;;;;;;;;;;;;;1.88;100.00;98936.77;109164;1253;62983;-61
2024/02/06 07:14:02;;;;;;;;;;;;;;;1.85;100.00;98944.69;109174;1253;58942;-59
2024/02/06 07:16:29;;;;;;;;;;;;;;;1.77;100.00;98953.23;109210;1253;74733;-61
2024/02/06 07:18:57;;;;;;;;;;;;;;;1.67;100.00;98953.34;109181;1253;70581;-59
2024/02/06 07:21:25;;;;;;;;;;;;;;;1.63;100.00;98953.94;109127;1253;72520;-59
2024/02/06 07:23:53;;;;;;;;;;;;;;;1.65;100.00;98961.46;109082;1253;61033;-60
2024/02/06 07:26:21;;;;;;;;;;;;;;;1.71;100.00;98966.60;109134;1253;59813;-61
2024/02/06 07:28:48;;;;;;;;;;;;;;;1.76;100.00;98966.16;109163;1253;74754;-60
2024/02/06 07:31:16;;;;;;;;;;;;;;;1.79;100.00;98970.25;109161;1253;66914;-61
2024/02/06 07:33:43;;;;;;;;;;;;;;;1.86;100.00;98972.48;109161;1253;72715;-61
2024/02/06 07:36:12;;;;;;;;;;;;;;;1.94;100.00;98974.16;109088;1253;59857;-62
2024/02/06 07:38:40;;;;;;;;;;;;;;;2.00;100.00;98980.77;109364;1253;59913;-64
2024/02/06 07:41:07;;;;;;;;;;;;;;;2.05;100.00;98986.68;109155;1253;74722;-61
2024/02/06 07:43:38;;;;;;;;;;;;;;;2.09;100.00;98989.56;109181;1253;65670;-61
2024/02/06 07:46:05;;;;;;;;;;;;;;;2.06;100.00;98989.86;109145;1253;72731;-65
2024/02/06 07:48:33;;;;;;;;;;;;;;;2.01;100.00;98990.60;109150;1253;59643;-62
2024/02/06 07:51:02;;;;;;;;;;;;;;;2.02;100.00;98986.54;109158;1253;58922;-62
2024/02/06 07:53:30;;;;;;;;;;;;;;;2.10;100.00;98988.10;109139;1253;74745;-63
2024/02/06 07:55:59;;;;;;;;;;;;;;;2.20;100.00;98984.87;109154;1253;68982;-62
2024/02/06 07:58:26;;;;;;;;;;;;;;;2.33;100.00;98989.02;109124;1253;74798;-67
2024/02/06 08:00:54;;;;;;;;;;;;;;;2.43;100.00;98997.30;109148;1253;61030;-62
2024/02/06 08:03:22;;;;;;;;;;;;;;;2.52;100.00;99002.77;109128;1253;59890;-63
2024/02/06 08:05:49;;;;;;;;;;;;;;;2.65;100.00;99005.14;109174;1253;73434;-63
2024/02/06 08:08:17;;;;;;;;;;;;;;;2.84;100.00;99007.09;109165;1253;67393;-64
2024/02/06 08:10:45;;;;;;;;;;;;;;;3.03;100.00;99006.52;109290;1253;72401;-66
2024/02/06 08:13:13;;;;;;;;;;;;;;;3.14;100.00;99008.32;109130;1253;59700;-64
2024/02/06 08:15:41;;;;;;;;;;;;;;;3.21;100.00;99002.22;109137;1260;59023;-63
2024/02/06 08:18:08;;;;;;;;;;;;;;;3.23;100.00;98999.51;109181;1253;73384;-64
2024/02/06 08:20:36;;;;;;;;;;;;;;;3.20;100.00;99004.98;109108;1253;65718;-65
2024/02/06 08:23:03;;;;;;;;;;;;;;;3.20;100.00;99010.98;109141;1253;72730;-66
2024/02/06 08:25:32;;;;;;;;;;;;;;;3.22;100.00;99015.73;109149;1253;61978;-65
2024/02/06 08:28:02;;;;;;;;;;;;;;;3.24;100.00;99018.08;109190;1253;59424;-64
2024/02/06 08:30:30;;;;;;;;;;;;;;;3.25;100.00;99020.99;109161;1253;76841;-68
2024/02/06 08:32:58;;;;;;;;;;;;;;;3.23;100.00;99017.34;109177;1253;66934;-64
2024/02/06 08:35:25;;;;;;;;;;;;;;;3.22;100.00;99021.36;109162;1253;71822;-65
2024/02/06 08:37:53;;;;;;;;;;;;;;;3.29;100.00;99024.88;109133;1253;63078;-65
2024/02/06 08:40:21;;;;;;;;;;;;;;;3.36;100.00;99022.28;109211;1253;59899;-65
2024/02/06 08:42:49;;;;;;;;;;;;;;;3.41;100.00;99023.25;109173;1253;75679;-66
2024/02/06 08:45:17;;;;;;;;;;;;;;;3.47;100.00;99021.59;109191;1259;69315;-66
2024/02/06 08:47:44;;;;;;;;;;;;;;;3.48;100.00;99017.51;109190;1253;71653;-65
2024/02/06 08:50:12;;;;;;;;;;;;;;;3.48;100.00;99017.69;109130;1253;64303;-66
2024/02/06 08:52:43;;;;;;;;;;;;;;;3.57;100.00;99018.68;109168;1259;59923;-67
2024/02/06 08:55:11;;;;;;;;;;;;;;;3.62;100.00;99020.55;109146;1253;74698;-66
2024/02/06 08:57:38;;;;;;;;;;;;;;;3.67;100.00;99019.55;109239;1253;69666;-65
2024/02/06 09:00:11;;;;;;;;;;;;;;;3.72;100.00;99022.45;109234;1253;75074;-66
2024/02/06 09:02:39;;;;;;;;;;;;;;;3.76;100.00;99014.75;109183;1256;61925;-70
2024/02/06 09:05:06;;;;;;;;;;;;;;;3.81;100.00;99013.02;109191;1253;61929;-66
2024/02/06 09:07:34;;;;;;;;;;;;;;;3.88;100.00;99009.14;109242;1253;74674;-66
2024/02/06 09:10:04;;;;;;;;;;;;;;;3.91;100.00;99010.13;109215;1253;68346;-66
2024/02/06 09:12:31;;;;;;;;;;;;;;;3.94;100.00;99010.70;109192;1253;73309;-67
2024/02/06 09:15:00;;;;;;;;;;;;;;;3.98;100.00;99011.09;109213;1253;62443;-68
2024/02/06 09:17:29;;;;;;;;;;;;;;;4.00;100.00;99002.74;109215;1254;60882;-66
2024/02/06 09:19:57;;;;;;;;;;;;;;;4.01;100.00;99008.83;109227;1253;76741;-65
2024/02/06 09:22:25;;;;;;;;;;;;;;;4.04;100.00;99007.83;109246;1253;68866;-66
2024/02/06 09:24:53;;;;;;;;;;;;;;;4.09;100.00;99015.97;109226;1254;73756;-65
2024/02/06 09:27:20;;;;;;;;;;;;;;;4.08;100.00;99022.50;109160;1253;62417;-68
2024/02/06 09:29:48;;;;;;;;;;;;;;;4.03;100.00;99018.63;109229;1253;62402;-65
2024/02/06 09:32:15;;;;;;;;;;;;;;;3.95;100.00;99016.58;109184;1253;75644;-67
2024/02/06 09:34:43;;;;;;;;;;;;;;;3.83;100.00;99016.48;109256;1253;70658;-66
2024/02/06 09:37:11;;;;;;;;;;;;;;;3.73;100.00;99019.02;109228;1254;73434;-67
2024/02/06 09:39:38;;;;;;;;;;;;;;;3.69;100.00;99017.95;109194;1253;60088;-66
2024/02/06 09:42:06;;;;;;;;;;;;;;;3.65;100.00;99020.38;109188;1253;60813;-66
2024/02/06 09:44:33;;;;;;;;;;;;;;;3.59;100.00;99022.64;109235;1253;77948;-66
2024/02/06 09:47:01;;;;;;;;;;;;;;;3.48;100.00;99017.27;109236;1253;69775;-66
2024/02/06 09:49:31;;;;;;;;;;;;;;;3.35;100.00;99015.34;109196;1257;74875;-64
2024/02/06 09:51:58;;;;;;;;;;;;;;;3.20;100.00;99019.34;109202;1254;60064;-66
2024/02/06 09:54:26;;;;;;;;;;;;;;;3.10;100.00;99022.90;109238;1253;59878;-66
2024/02/06 09:56:56;;;;;;;;;;;;;;;3.08;100.00;99023.21;109193;1253;77007;-65
2024/02/06 09:59:23;;;;;;;;;;;;;;;3.10;100.00;99023.85;109202;1253;67511;-67
2024/02/06 10:01:51;;;;;;;;;;;;;;;3.19;100.00;99028.91;109155;1253;73762;-64
2024/02/06 10:04:19;;;;;;;;;;;;;;;3.29;100.00;99029.00;109188;1255;59956;-63
2024/02/06 10:06:47;;;;;;;;;;;;;;;3.37;100.00;99031.27;109246;1253;60402;-63
2024/02/06 10:09:17;;;;;;;;;;;;;;;3.38;100.00;99030.90;109263;1253;76617;-63
2024/02/06 10:11:45;;;;;;;;;;;;;;;3.41;100.00;99030.45;109196;1254;68183;-67
2024/02/06 10:14:13;;;;;;;;;;;;;;;3.45;100.00;99033.48;109256;1254;75237;-62
2024/02/06 10:16:41;;;;;;;;;;;;;;;3.44;100.00;99036.09;109215;1253;60492;-63
2024/02/06 10:19:12;;;;;;;;;;;;;;;3.40;100.00;99031.54;109201;1254;62071;-64
2024/02/06 10:21:40;;;;;;;;;;;;;;;3.36;100.00;99030.77;109186;1253;73774;-67
2024/02/06 10:24:08;;;;;;;;;;;;;;;3.36;100.00;99033.41;109247;1254;68411;-65
2024/02/06 10:26:36;;;;;;;;;;;;;;;3.32;100.00;99035.02;109183;1253;73759;-65
2024/02/06 10:29:08;;;;;;;;;;;;;;;3.27;100.00;99035.60;109231;1256;61445;-65
2024/02/06 10:31:37;;;;;;;;;;;;;;;3.22;100.00;99035.94;109153;1254;62090;-67
2024/02/06 10:34:06;;;;;;;;;;;;;;;3.15;100.00;99033.71;109244;1253;76228;-66
2024/02/06 10:36:35;;;;;;;;;;;;;;;3.14;100.00;99037.45;109238;1253;69549;-63
2024/02/06 10:39:03;;;;;;;;;;;;;;;3.13;100.00;99038.05;109173;1254;74860;-62
2024/02/06 10:41:30;;;;;;;;;;;;;;;3.10;100.00;99037.94;109223;1253;60490;-65
2024/02/06 10:44:21;;;;;;;;;;;;;;;3.04;100.00;99040.23;109235;1254;62431;-63
2024/02/06 10:47:01;;;;;;;;;;;;;;;3.02;100.00;99040.48;109229;1253;77387;-64
2024/02/06 10:49:32;;;;;;;;;;;;;;;3.04;100.00;99040.72;109193;1257;67917;-64
2024/02/06 10:52:01;;;;;;;;;;;;;;;3.10;100.00;99041.51;109226;1254;73803;-62
2024/02/06 10:54:29;;;;;;;;;;;;;;;3.17;100.00;99045.70;109240;1253;60565;-62
2024/02/06 10:57:03;;;;;;;;;;;;;;;3.27;100.00;99049.84;109199;1254;60350;-62
2024/02/06 10:59:32;;;;;;;;;;;;;;;3.38;100.00;99051.77;109223;1252;76243;-62
2024/02/06 11:02:02;;;;;;;;;;;;;;;3.47;100.00;99053.53;109272;1253;69472;-61
2024/02/06 11:04:29;;;;;;;;;;;;;;;3.52;100.00;99050.38;109259;1254;74204;-61
2024/02/06 11:07:05;;;;;;;;;;;;;;;3.51;100.00;99049.79;109196;1252;59348;-62
2024/02/06 11:09:33;;;;;;;;;;;;;;;3.45;100.00;99049.45;109217;1253;60951;-61
2024/02/06 11:12:01;;;;;;;;;;;;;;;3.43;100.00;99050.46;109230;1255;76796;-61
2024/02/06 11:14:29;;;;;;;;;;;;;;;3.45;100.00;99047.85;109258;1253;67146;-63
2024/02/06 11:16:57;;;;;;;;;;;;;;;3.45;100.00;99046.52;109101;1254;75647;-68
2024/02/06 11:19:35;;;;;;;;;;;;;;;3.43;100.00;99046.41;109214;1254;60039;-61
2024/02/06 11:22:10;;;;;;;;;;;;;;;3.36;100.00;99051.38;109230;1253;60644;-61
2024/02/06 11:24:38;;;;;;;;;;;;;;;3.32;100.00;99051.33;108767;1254;658616;-60
2024/02/06 11:27:05;;;;;;;;;;;;;;;3.29;100.00;99053.52;109192;1255;70715;-60
2024/02/06 11:29:33;;;;;;;;;;;;;;;3.25;100.00;99052.92;109269;1254;75189;-62
2024/02/06 11:32:02;;;;;;;;;;;;;;;3.20;100.00;99048.50;109193;1255;60364;-60
2024/02/06 11:34:30;;;;;;;;;;;;;;;3.16;100.00;99044.94;109171;1253;63316;-61
2024/02/06 11:37:00;;;;;;;;;;;;;;;3.15;100.00;99042.89;109200;1253;77210;-65
2024/02/06 11:39:28;;;;;;;;;;;;;;;3.13;100.00;99044.04;109268;1254;69030;-60
2024/02/06 11:41:59;;;;;;;;;;;;;;;3.13;100.00;99044.46;109264;1254;73583;-60
2024/02/06 11:44:27;;;;;;;;;;;;;;;3.10;100.00;99042.73;109161;1254;58978;-61
2024/02/06 11:46:55;;;;;;;;;;;;;;;3.05;100.00;99039.63;109115;1253;60765;-61
2024/02/06 11:49:23;;;;;;;;;;;;;;;3.02;100.00;99039.83;109212;1253;76703;-61
2024/02/06 11:51:52;;;;;;;;;;;;;;;2.98;100.00;99038.16;109246;1253;68197;-62
2024/02/06 11:54:21;;;;;;;;;;;;;;;2.96;100.00;99037.88;109190;1254;74849;-64
2024/02/06 11:56:49;;;;;;;;;;;;;;;2.96;100.00;99032.85;109164;1252;61566;-63
2024/02/06 11:59:17;;;;;;;;;;;;;;;2.95;100.00;99035.02;109170;1257;61971;-62
2024/02/06 12:01:45;;;;;;;;;;;;;;;2.96;100.00;99037.23;109169;1253;77677;-61
2024/02/06 12:04:20;;;;;;;;;;;;;;;2.97;100.00;99036.42;109220;1253;68833;-61
2024/02/06 12:06:48;;;;;;;;;;;;;;;2.95;100.00;99039.90;109122;1257;73707;-63
2024/02/06 12:09:16;;;;;;;;;;;;;;;2.91;100.00;99040.26;109207;1254;64045;-62
2024/02/06 12:11:44;;;;;;;;;;;;;;;2.89;100.00;99037.95;109218;1253;61989;-62
2024/02/06 12:14:14;;;;;;;;;;;;;;;2.88;100.00;99034.45;109168;1255;75724;-63
2024/02/06 12:16:42;;;;;;;;;;;;;;;2.86;100.00;99037.70;109153;1254;69167;-66
2024/02/06 12:19:10;;;;;;;;;;;;;;;2.82;100.00;99042.59;109128;1254;74368;-62
2024/02/06 12:21:39;;;;;;;;;;;;;;;2.77;100.00;99046.45;109219;1254;62571;-61
2024/02/06 12:24:07;;;;;;;;;;;;;;;2.73;100.00;99048.55;109271;1253;59774;-62
2024/02/06 12:26:35;;;;;;;;;;;;;;;2.71;100.00;99055.78;109245;1253;78223;-65
2024/02/06 12:29:03;;;;;;;;;;;;;;;2.70;100.00;99056.41;109223;1253;69818;-62
2024/02/06 12:31:34;;;;;;;;;;;;;;;2.71;100.00;99056.14;109250;1254;75094;-61
2024/02/06 12:34:04;;;;;;;;;;;;;;;2.73;100.00;99053.85;109217;1253;63118;-61
2024/02/06 12:36:32;;;;;;;;;;;;;;;2.75;100.00;99057.59;109259;1254;61017;-62